Time;durP1;ratioP1;P1;durP2;ratioP2;P2;SDS_P1;SDS_P2;PMS_P1;PMS_P2;Temp;Humidity;BMP_temperature;BMP_pressure;BME280_temperature;BME280_humidity;BME280_pressure;Samples;Min_cycle;Max_cycle;Signal;HPM_P1;HPM_P2
2023/10/16 00:01:19;;;;;;;5.68;1.38;;;5.60;99.90;;;;;;4922778;29;20034;-56
2023/10/16 00:03:44;;;;;;;4.43;1.02;;;5.60;99.90;;;;;;4922929;29;20032;-58
2023/10/16 00:06:16;;;;;;;2.17;1.13;;;5.50;99.90;;;;;;4932522;28;20048;-58
2023/10/16 00:08:49;;;;;;;6.00;1.25;;;5.50;99.90;;;;;;4930379;29;20050;-55
2023/10/16 00:11:18;;;;;;;2.97;0.95;;;5.50;99.90;;;;;;4929162;28;20376;-57
2023/10/16 00:13:47;;;;;;;2.83;1.05;;;5.50;99.90;;;;;;4932414;29;20039;-57
2023/10/16 00:16:17;;;;;;;5.40;1.05;;;5.50;99.90;;;;;;4931248;28;20264;-57
2023/10/16 00:18:45;;;;;;;2.80;1.08;;;5.40;99.90;;;;;;4924398;28;20039;-58
2023/10/16 00:21:11;;;;;;;5.40;0.85;;;5.40;99.90;;;;;;4928199;28;20032;-57
2023/10/16 00:23:40;;;;;;;2.10;0.90;;;5.40;99.90;;;;;;4929918;29;20043;-57
2023/10/16 00:26:07;;;;;;;4.60;1.52;;;5.40;99.90;;;;;;4924670;28;20360;-56
2023/10/16 00:28:33;;;;;;;3.05;1.02;;;5.40;99.90;;;;;;4924264;29;20586;-58
2023/10/16 00:30:59;;;;;;;3.65;1.02;;;5.30;99.90;;;;;;4924116;29;20166;-58
2023/10/16 00:33:25;;;;;;;3.38;1.20;;;5.30;99.90;;;;;;4924358;29;20099;-56
2023/10/16 00:35:53;;;;;;;6.35;1.20;;;5.30;99.90;;;;;;4929480;29;20391;-57
2023/10/16 00:38:19;;;;;;;3.88;1.08;;;5.30;99.90;;;;;;4919773;29;20381;-57
2023/10/16 00:43:33;;;;;;;4.38;1.00;;;5.20;99.90;;;;;;4925863;28;20155;-55
2023/10/16 00:46:08;;;;;;;2.40;1.10;;;5.30;99.90;;;;;;4928040;28;20110;-58
2023/10/16 00:48:36;;;;;;;2.42;0.70;;;5.20;99.90;;;;;;4924852;29;20027;-58
2023/10/16 00:51:24;;;;;;;2.20;0.90;;;5.20;99.90;;;;;;4933190;28;20031;-58
2023/10/16 00:53:48;;;;;;;4.15;0.65;;;5.20;99.90;;;;;;4930041;29;20035;-57
2023/10/16 00:56:14;;;;;;;4.40;0.80;;;5.10;99.90;;;;;;4927599;29;20638;-58
2023/10/16 00:58:41;;;;;;;2.05;0.70;;;5.10;99.90;;;;;;4923665;29;20024;-56
2023/10/16 01:01:12;;;;;;;2.83;0.90;;;5.10;99.90;;;;;;4925836;29;20111;-58
2023/10/16 01:03:40;;;;;;;3.70;0.90;;;5.00;99.90;;;;;;4922243;29;20477;-56
2023/10/16 01:06:15;;;;;;;4.72;0.98;;;5.00;99.90;;;;;;4920258;29;20043;-57
2023/10/16 01:08:51;;;;;;;5.30;1.70;;;5.00;99.90;;;;;;4920574;29;20032;-57
2023/10/16 01:11:21;;;;;;;7.63;1.13;;;5.00;99.90;;;;;;4923758;29;20055;-58
2023/10/16 01:13:48;;;;;;;2.35;0.80;;;5.00;99.90;;;;;;4929382;28;20039;-57
2023/10/16 01:16:17;;;;;;;5.18;0.93;;;5.10;99.90;;;;;;4924134;29;20391;-58
2023/10/16 01:18:44;;;;;;;4.18;1.20;;;5.00;99.90;;;;;;4927695;28;20107;-58
2023/10/16 01:21:13;;;;;;;2.25;1.13;;;5.10;99.90;;;;;;4921258;29;20020;-57
2023/10/16 01:23:39;;;;;;;3.40;1.00;;;5.10;99.90;;;;;;4921106;29;20040;-57
2023/10/16 01:26:06;;;;;;;5.03;0.93;;;5.10;99.90;;;;;;4923155;29;20378;-58
2023/10/16 01:28:32;;;;;;;4.35;1.00;;;5.10;99.90;;;;;;4926516;29;20178;-57
2023/10/16 01:31:00;;;;;;;5.28;1.20;;;5.10;99.90;;;;;;4930909;29;20114;-58
2023/10/16 01:33:25;;;;;;;5.05;0.80;;;5.10;99.90;;;;;;4928643;29;20028;-58
2023/10/16 01:35:51;;;;;;;1.33;0.70;;;5.00;99.90;;;;;;4925110;29;20036;-57
2023/10/16 01:38:19;;;;;;;2.60;0.95;;;5.00;99.90;;;;;;4926337;29;20039;-58
2023/10/16 01:43:28;;;;;;;6.38;1.10;;;5.00;99.90;;;;;;4925478;29;20411;-58
2023/10/16 01:45:55;;;;;;;3.72;0.95;;;5.00;99.90;;;;;;4923015;28;20177;-58
2023/10/16 01:48:21;;;;;;;6.93;1.13;;;4.90;99.90;;;;;;4930629;28;20106;-58
2023/10/16 01:50:50;;;;;;;3.55;0.80;;;4.90;99.90;;;;;;4928446;29;20473;-58
2023/10/16 01:53:25;;;;;;;4.03;0.80;;;4.90;99.90;;;;;;4924932;29;20023;-57
2023/10/16 01:55:54;;;;;;;1.88;1.05;;;4.90;99.90;;;;;;4932792;29;20432;-58
2023/10/16 01:58:24;;;;;;;3.10;1.10;;;4.80;99.90;;;;;;4928565;29;20027;-55
2023/10/16 02:00:51;;;;;;;2.65;0.70;;;4.80;99.90;;;;;;4928308;29;20024;-58
2023/10/16 02:03:17;;;;;;;4.22;2.00;;;4.80;99.90;;;;;;4929882;28;20410;-58
2023/10/16 02:05:46;;;;;;;2.05;0.73;;;4.70;99.90;;;;;;4927250;29;20023;-57
2023/10/16 02:08:13;;;;;;;12.68;0.93;;;4.70;99.90;;;;;;4930256;28;20031;-55
2023/10/16 02:10:40;;;;;;;3.88;0.82;;;4.70;99.90;;;;;;4928440;28;20036;-57
2023/10/16 02:13:06;;;;;;;5.28;0.90;;;4.60;99.90;;;;;;4923821;28;20091;-57
2023/10/16 02:15:36;;;;;;;3.72;0.80;;;4.60;99.90;;;;;;4924208;29;20036;-58
2023/10/16 02:18:04;;;;;;;1.55;0.65;;;4.60;99.90;;;;;;4920420;29;20114;-58
2023/10/16 02:20:31;;;;;;;4.03;0.85;;;4.50;99.90;;;;;;4920303;29;20050;-57
2023/10/16 02:22:59;;;;;;;2.47;0.68;;;4.50;99.90;;;;;;4922022;29;20293;-58
2023/10/16 02:25:25;;;;;;;1.60;0.55;;;4.40;99.90;;;;;;4922015;29;20110;-58
2023/10/16 02:27:51;;;;;;;1.73;0.85;;;4.40;99.90;;;;;;4922113;29;20050;-56
2023/10/16 02:32:53;;;;;;;3.42;1.20;;;4.30;99.90;;;;;;4922174;29;20151;-58
2023/10/16 02:35:21;;;;;;;4.93;1.42;;;4.30;99.90;;;;;;4921898;29;20020;-57
2023/10/16 02:37:53;;;;;;;2.35;1.02;;;4.20;99.90;;;;;;4922757;29;20024;-59
2023/10/16 02:40:25;;;;;;;3.53;1.10;;;4.10;99.90;;;;;;4927723;28;20039;-59
2023/10/16 02:42:55;;;;;;;5.32;1.15;;;4.10;99.90;;;;;;4929737;29;20035;-59
2023/10/16 02:45:24;;;;;;;6.85;0.80;;;4.10;99.90;;;;;;4923586;29;20039;-45
2023/10/16 02:47:51;;;;;;;2.97;0.80;;;4.10;99.90;;;;;;4927383;28;20064;-45
2023/10/16 02:50:18;;;;;;;2.03;0.80;;;4.00;99.90;;;;;;4929810;29;20086;-46
2023/10/16 02:52:45;;;;;;;3.72;1.10;;;4.00;99.90;;;;;;4926624;29;20468;-45
2023/10/16 02:55:11;;;;;;;5.00;0.80;;;4.00;99.90;;;;;;4928536;28;20035;-48
2023/10/16 02:57:40;;;;;;;3.25;1.25;;;4.00;99.90;;;;;;4931364;29;20023;-47
2023/10/16 03:00:08;;;;;;;3.08;0.70;;;4.00;99.90;;;;;;4923796;29;20086;-45
2023/10/16 03:02:35;;;;;;;2.90;0.80;;;4.10;99.90;;;;;;4923851;29;20074;-45
2023/10/16 03:05:34;;;;;;;2.63;0.85;;;4.10;99.90;;;;;;4930405;29;20051;-44
2023/10/16 03:07:52;;;;;;;1.48;0.60;;;4.10;99.90;;;;;;4929216;29;20416;-44
2023/10/16 03:10:20;;;;;;;4.10;0.85;;;4.20;99.90;;;;;;4928114;29;20034;-46
2023/10/16 03:12:50;;;;;;;5.60;0.80;;;4.20;99.90;;;;;;4931841;29;20039;-48
2023/10/16 03:15:20;;;;;;;8.43;1.05;;;4.20;99.90;;;;;;4932865;28;20044;-46
2023/10/16 03:17:50;;;;;;;3.97;1.10;;;4.20;99.90;;;;;;4934310;28;20051;-49
2023/10/16 03:20:35;;;;;;;2.38;0.98;;;4.20;99.90;;;;;;4935863;28;20166;-44
2023/10/16 03:23:06;;;;;;;6.65;1.27;;;4.20;99.90;;;;;;4934558;28;20095;-47
2023/10/16 03:25:50;;;;;;;6.45;1.67;;;4.20;99.90;;;;;;4928670;28;20051;-46
2023/10/16 03:28:17;;;;;;;5.07;1.55;;;4.20;99.90;;;;;;4929256;29;20131;-46
2023/10/16 03:30:43;;;;;;;4.70;1.50;;;4.10;99.90;;;;;;4937344;28;20079;-47
2023/10/16 03:33:13;;;;;;;2.90;1.30;;;4.10;99.90;;;;;;4929896;29;20035;-45
2023/10/16 03:35:41;;;;;;;5.28;1.30;;;4.10;99.90;;;;;;4930049;29;20071;-45
2023/10/16 03:38:24;;;;;;;6.10;1.75;;;4.00;99.90;;;;;;4927500;29;20023;-47
2023/10/16 03:40:51;;;;;;;3.35;1.00;;;4.00;99.90;;;;;;4933320;29;20102;-49
2023/10/16 03:43:17;;;;;;;3.05;1.10;;;3.90;99.90;;;;;;4932600;29;20107;-46
2023/10/16 03:45:43;;;;;;;3.10;1.10;;;3.90;99.90;;;;;;4940661;28;20495;-47
2023/10/16 03:48:10;;;;;;;6.13;1.42;;;3.90;99.90;;;;;;4932625;29;20098;-47
2023/10/16 03:50:42;;;;;;;2.83;1.08;;;3.90;99.90;;;;;;4936051;29;20387;-47
2023/10/16 03:53:08;;;;;;;3.22;1.00;;;3.90;99.90;;;;;;4934343;29;20027;-45
2023/10/16 03:55:44;;;;;;;2.58;0.90;;;3.90;99.90;;;;;;4932456;28;20031;-47
2023/10/16 03:58:13;;;;;;;2.42;0.95;;;3.90;99.90;;;;;;4931815;29;20055;-47
2023/10/16 04:00:56;;;;;;;4.43;0.82;;;3.90;99.90;;;;;;4927888;29;20035;-47
2023/10/16 04:03:23;;;;;;;4.25;0.90;;;3.90;99.90;;;;;;4926975;29;20127;-49
2023/10/16 04:05:50;;;;;;;3.80;0.90;;;3.90;99.90;;;;;;4924617;29;20518;-46
2023/10/16 04:08:26;;;;;;;4.95;1.10;;;3.90;99.90;;;;;;4935782;29;20120;-49
2023/10/16 04:10:56;;;;;;;2.67;0.80;;;3.80;99.90;;;;;;4933632;28;20035;-44
2023/10/16 04:13:31;;;;;;;5.13;0.80;;;3.90;99.90;;;;;;4930304;29;20102;-44
2023/10/16 04:16:08;;;;;;;5.03;1.00;;;3.80;99.90;;;;;;4933052;28;20062;-44
2023/10/16 04:18:34;;;;;;;4.28;1.20;;;3.80;99.90;;;;;;4932796;29;20451;-44
2023/10/16 04:24:04;;;;;;;3.90;0.80;;;3.80;99.90;;;;;;4920081;29;20048;-47
2023/10/16 04:26:34;;;;;;;3.83;0.85;;;3.70;99.90;;;;;;4928632;29;20103;-45
2023/10/16 04:32:07;;;;;;;3.55;0.85;;;3.60;99.90;;;;;;4932637;28;20043;-47
2023/10/16 04:34:34;;;;;;;2.78;0.85;;;3.60;99.90;;;;;;4929836;28;20468;-48
2023/10/16 04:50:37;;;;;;;3.25;1.08;;;3.60;99.90;;;;;;4930426;29;20079;-60
2023/10/16 04:53:13;;;;;;;7.82;1.67;;;3.60;99.90;;;;;;4922777;29;20126;-57
2023/10/16 05:03:43;;;;;;;4.53;0.90;;;3.50;99.90;;;;;;4929395;29;20094;-56
2023/10/16 05:22:03;;;;;;;5.50;1.27;;;3.40;99.90;;;;;;4929614;29;20035;-55
2023/10/16 06:16:53;;;;;;;3.55;1.33;;;5.20;99.90;;;;;;4917442;28;20472;-57
2023/10/16 06:19:19;;;;;;;2.42;1.38;;;5.30;99.90;;;;;;4930511;29;20815;-57
2023/10/16 06:21:52;;;;;;;2.92;1.67;;;5.40;99.90;;;;;;4920531;29;20027;-58
2023/10/16 06:24:32;;;;;;;3.45;1.40;;;5.50;99.90;;;;;;4927157;28;20039;-57
2023/10/16 06:27:08;;;;;;;5.55;1.05;;;5.60;99.90;;;;;;4927436;29;20047;-56
2023/10/16 06:29:35;;;;;;;6.07;1.60;;;5.60;99.90;;;;;;4928019;29;20098;-58
2023/10/16 06:32:19;;;;;;;3.00;1.30;;;5.70;99.90;;;;;;4926248;28;20027;-57
2023/10/16 06:34:50;;;;;;;4.95;1.35;;;5.80;99.90;;;;;;4928247;29;20023;-58
2023/10/16 06:37:21;;;;;;;5.65;1.50;;;6.00;99.90;;;;;;4921124;28;20055;-57
2023/10/16 06:39:54;;;;;;;2.65;1.50;;;6.00;99.90;;;;;;4929441;28;20020;-57
2023/10/16 06:42:23;;;;;;;3.35;1.30;;;6.10;99.90;;;;;;4928449;29;20023;-57
2023/10/16 06:44:50;;;;;;;6.05;1.90;;;6.20;99.90;;;;;;4922276;28;20051;-56
2023/10/16 06:47:47;;;;;;;4.18;1.52;;;6.20;99.90;;;;;;4929992;29;20142;-61
2023/10/16 06:52:51;;;;;;;5.45;1.67;;;6.40;99.90;;;;;;4925397;28;20038;-60
2023/10/16 06:55:17;;;;;;;6.20;1.50;;;6.40;99.90;;;;;;4927560;28;20024;-60
2023/10/16 06:57:44;;;;;;;6.95;1.42;;;6.50;99.90;;;;;;4929579;29;20079;-60
2023/10/16 07:00:22;;;;;;;5.05;1.83;;;6.60;99.90;;;;;;4922342;29;20067;-60
2023/10/16 07:02:55;;;;;;;4.18;1.70;;;6.80;99.90;;;;;;4925091;28;20032;-60
2023/10/16 07:05:25;;;;;;;3.45;1.40;;;7.10;99.90;;;;;;4928481;29;20098;-60
2023/10/16 07:07:52;;;;;;;5.45;1.20;;;7.30;99.90;;;;;;4925247;29;20044;-61
2023/10/16 07:10:18;;;;;;;4.78;1.40;;;7.50;99.90;;;;;;4926539;29;20445;-62
2023/10/16 07:12:58;;;;;;;4.38;1.55;;;7.70;99.90;;;;;;4928003;28;20030;-61
2023/10/16 07:15:29;;;;;;;4.97;1.40;;;7.80;99.90;;;;;;4929268;29;20534;-62
2023/10/16 07:17:55;;;;;;;8.23;2.15;;;8.00;99.90;;;;;;4924244;29;20020;-61
2023/10/16 07:20:30;;;;;;;4.40;1.35;;;8.20;99.90;;;;;;4927528;28;20031;-61
2023/10/16 07:23:09;;;;;;;4.30;1.20;;;8.30;99.90;;;;;;4929344;29;20122;-61
2023/10/16 07:25:47;;;;;;;2.55;1.10;;;8.40;99.90;;;;;;4927346;29;20102;-61
2023/10/16 07:28:13;;;;;;;5.07;1.60;;;8.50;99.90;;;;;;4929053;28;20031;-61
2023/10/16 07:30:42;;;;;;;3.58;1.40;;;8.70;99.90;;;;;;4926699;28;20114;-62
2023/10/16 07:33:14;;;;;;;6.82;1.90;;;8.70;99.90;;;;;;4925555;29;20028;-62
2023/10/16 07:35:46;;;;;;;3.28;1.60;;;8.70;99.90;;;;;;4925921;29;20388;-60
2023/10/16 07:38:20;;;;;;;4.50;1.52;;;8.70;99.90;;;;;;4921082;29;20633;-62
2023/10/16 07:40:52;;;;;;;7.43;1.50;;;8.60;99.90;;;;;;4922526;29;20024;-59
2023/10/16 07:43:28;;;;;;;4.65;1.80;;;8.60;99.90;;;;;;4925667;29;20027;-61
2023/10/16 07:48:44;;;;;;;3.58;1.77;;;8.80;99.90;;;;;;4925901;29;20420;-61
2023/10/16 07:51:11;;;;;;;5.60;1.83;;;8.90;99.90;;;;;;4931484;28;20030;-61
2023/10/16 07:53:37;;;;;;;4.95;1.50;;;9.00;99.90;;;;;;4931497;29;20023;-61
2023/10/16 07:56:17;;;;;;;6.60;1.60;;;9.10;98.60;;;;;;4929300;28;20036;-62
2023/10/16 07:58:48;;;;;;;2.85;1.60;;;9.30;98.50;;;;;;4932700;28;20051;-62
2023/10/16 08:01:17;;;;;;;5.55;1.60;;;9.60;99.20;;;;;;4929683;28;20035;-61
2023/10/16 08:03:46;;;;;;;2.60;1.15;;;9.80;98.70;;;;;;4932455;28;20530;-62
2023/10/16 08:06:16;;;;;;;4.13;1.30;;;10.20;98.40;;;;;;4927687;28;20063;-62
2023/10/16 08:08:43;;;;;;;5.63;1.50;;;10.50;97.80;;;;;;4925234;28;20015;-61
2023/10/16 08:11:18;;;;;;;3.75;1.40;;;10.60;93.80;;;;;;4932493;29;20023;-61
2023/10/16 08:13:47;;;;;;;3.50;1.30;;;10.90;96.40;;;;;;4930957;29;20031;-62
2023/10/16 08:16:18;;;;;;;5.60;1.77;;;11.10;98.10;;;;;;4928921;28;20102;-62
2023/10/16 08:18:47;;;;;;;2.80;1.05;;;11.30;94.50;;;;;;4932069;29;20059;-61
2023/10/16 08:21:21;;;;;;;2.25;1.05;;;11.30;95.10;;;;;;4928432;29;20071;-62
2023/10/16 08:23:47;;;;;;;2.22;1.15;;;11.40;92.20;;;;;;4932879;29;20563;-61
2023/10/16 08:26:28;;;;;;;2.03;1.10;;;11.30;91.60;;;;;;4930194;29;20103;-62
2023/10/16 08:28:54;;;;;;;2.08;1.10;;;11.10;91.30;;;;;;4928078;28;20024;-61
2023/10/16 08:31:23;;;;;;;2.65;1.13;;;11.00;92.00;;;;;;4932316;29;20052;-63
2023/10/16 08:33:54;;;;;;;4.65;1.08;;;10.90;90.80;;;;;;4930872;29;20642;-61
2023/10/16 08:36:20;;;;;;;2.38;1.15;;;10.90;92.40;;;;;;4921731;28;20107;-61
2023/10/16 08:38:52;;;;;;;7.93;1.40;;;11.00;92.80;;;;;;4929264;28;20571;-61
2023/10/16 08:44:17;;;;;;;3.38;1.42;;;10.90;89.30;;;;;;4927316;29;20090;-61
2023/10/16 08:46:44;;;;;;;2.13;1.25;;;10.90;90.30;;;;;;4930314;28;20035;-61
2023/10/16 08:49:11;;;;;;;2.78;1.13;;;10.90;90.50;;;;;;4922825;29;20038;-61
2023/10/16 08:51:38;;;;;;;5.75;1.30;;;10.90;88.90;;;;;;4928053;29;20016;-61
2023/10/16 08:54:05;;;;;;;5.82;1.42;;;11.00;89.80;;;;;;4924127;29;20027;-61
2023/10/16 08:56:31;;;;;;;2.22;0.80;;;11.10;90.30;;;;;;4933313;29;20427;-62
2023/10/16 08:59:01;;;;;;;7.68;1.50;;;11.40;90.60;;;;;;4930950;28;20055;-62
2023/10/16 09:01:28;;;;;;;1.75;1.08;;;11.50;86.50;;;;;;4926471;28;20020;-62
2023/10/16 09:04:05;;;;;;;5.53;1.42;;;11.60;89.20;;;;;;4928764;28;20034;-61
2023/10/16 09:06:36;;;;;;;2.65;0.80;;;11.70;89.40;;;;;;4931633;28;20373;-62
2023/10/16 09:09:11;;;;;;;1.73;0.90;;;11.90;89.50;;;;;;4930833;28;20112;-62
2023/10/16 09:11:39;;;;;;;2.38;1.10;;;12.00;89.40;;;;;;4918402;29;20560;-62
2023/10/16 09:14:07;;;;;;;2.60;1.15;;;12.00;88.40;;;;;;4925863;29;20034;-62
2023/10/16 09:16:34;;;;;;;2.90;1.13;;;11.90;86.50;;;;;;4929717;29;20020;-61
2023/10/16 09:19:02;;;;;;;2.00;1.02;;;12.00;86.80;;;;;;4930139;28;20036;-62
2023/10/16 09:21:28;;;;;;;1.58;0.80;;;12.00;86.60;;;;;;4929087;28;20016;-61
2023/10/16 09:24:00;;;;;;;6.22;1.20;;;12.00;86.10;;;;;;4931118;29;20102;-61
2023/10/16 09:26:32;;;;;;;4.22;0.90;;;12.10;86.70;;;;;;4927689;29;20523;-62
2023/10/16 09:29:05;;;;;;;3.80;1.13;;;12.20;86.00;;;;;;4927639;28;20024;-61
2023/10/16 09:31:31;;;;;;;5.82;1.00;;;12.40;85.90;;;;;;4930286;29;20055;-63
2023/10/16 09:33:57;;;;;;;2.60;1.30;;;12.60;83.50;;;;;;4928983;29;20392;-62
2023/10/16 09:36:22;;;;;;;1.73;0.70;;;12.90;81.40;;;;;;4923290;28;20019;-61
2023/10/16 09:38:53;;;;;;;3.17;1.33;;;13.10;80.30;;;;;;4928270;29;20392;-61
2023/10/16 09:43:56;;;;;;;2.53;0.93;;;13.00;78.50;;;;;;4931012;28;20019;-61
2023/10/16 09:49:09;;;;;;;2.50;0.80;;;12.90;77.80;;;;;;4928452;28;20458;-62
2023/10/16 09:51:35;;;;;;;2.55;1.10;;;12.90;80.60;;;;;;4928074;28;20035;-62
2023/10/16 09:54:02;;;;;;;6.07;1.20;;;13.00;79.80;;;;;;4930827;29;20028;-61
2023/10/16 09:56:40;;;;;;;6.30;1.77;;;13.00;75.80;;;;;;4930033;29;20025;-62
2023/10/16 09:59:12;;;;;;;4.07;0.98;;;12.80;76.60;;;;;;4928847;29;20123;-63
2023/10/16 10:01:42;;;;;;;2.90;1.10;;;12.70;75.90;;;;;;4927524;28;20031;-62
2023/10/16 10:04:11;;;;;;;2.78;1.13;;;12.60;76.90;;;;;;4930504;29;20447;-62
2023/10/16 10:06:39;;;;;;;4.72;1.38;;;12.50;75.50;;;;;;4923188;29;20095;-63
2023/10/16 10:12:09;;;;;;;4.03;1.08;;;12.10;75.10;;;;;;4929756;29;20041;-62
2023/10/16 10:14:39;;;;;;;2.97;0.90;;;12.00;76.60;;;;;;4925992;29;20087;-62
2023/10/16 10:17:10;;;;;;;4.97;0.90;;;11.90;76.60;;;;;;4928651;28;20090;-62
2023/10/16 10:19:43;;;;;;;2.15;0.80;;;12.00;77.00;;;;;;4928830;28;20019;-62
2023/10/16 10:22:26;;;;;;;3.42;1.75;;;12.00;76.50;;;;;;4927993;29;20048;-63
2023/10/16 10:25:46;;;;;;;3.05;1.20;;;12.00;75.80;;;;;;4924726;29;20488;-61
2023/10/16 10:28:36;;;;;;;3.60;1.08;;;12.00;74.30;;;;;;4924539;29;20047;-62
2023/10/16 10:31:02;;;;;;;3.50;0.77;;;11.90;73.90;;;;;;4929260;29;20511;-62
2023/10/16 10:33:37;;;;;;;2.85;0.80;;;11.80;76.00;;;;;;4924745;28;20055;-62
2023/10/16 10:36:30;;;;;;;3.67;0.80;;;11.80;75.20;;;;;;4923376;28;20042;-61
2023/10/16 10:42:03;;;;;;;2.65;0.90;;;11.70;74.80;;;;;;4926980;29;20743;-63
2023/10/16 10:44:43;;;;;;;8.80;1.10;;;11.80;75.40;;;;;;4923077;29;20540;-61
2023/10/16 10:47:31;;;;;;;6.25;1.00;;;12.10;73.30;;;;;;4924213;29;20055;-59
2023/10/16 10:49:59;;;;;;;5.70;1.10;;;12.30;72.30;;;;;;4930307;28;20027;-53
2023/10/16 10:52:27;;;;;;;6.43;0.95;;;12.40;71.80;;;;;;4926877;28;20043;-57
2023/10/16 10:55:00;;;;;;;4.45;1.00;;;12.70;71.10;;;;;;4929684;29;20022;-67
2023/10/16 10:57:26;;;;;;;3.35;0.93;;;12.80;70.60;;;;;;4928843;28;20026;-55
2023/10/16 10:59:56;;;;;;;2.95;1.23;;;12.90;71.30;;;;;;4924563;28;20032;-56
2023/10/16 11:02:48;;;;;;;9.32;1.23;;;13.10;71.60;;;;;;4928710;29;20023;-53
2023/10/16 11:05:14;;;;;;;2.33;0.85;;;13.20;68.50;;;;;;4926991;29;20407;-56
2023/10/16 11:07:45;;;;;;;6.93;1.10;;;13.20;70.60;;;;;;4926299;29;20181;-55
2023/10/16 11:10:13;;;;;;;3.28;0.88;;;13.10;68.20;;;;;;4929606;29;20027;-57
2023/10/16 11:12:39;;;;;;;2.55;0.82;;;13.00;69.50;;;;;;4927810;29;20103;-56
2023/10/16 11:15:15;;;;;;;3.97;0.73;;;12.90;70.50;;;;;;4931469;28;20114;-58
2023/10/16 11:17:40;;;;;;;5.80;0.95;;;12.80;70.10;;;;;;4926798;28;20023;-57
2023/10/16 11:22:44;;;;;;;3.42;0.80;;;12.50;70.30;;;;;;4922904;29;20058;-57
2023/10/16 11:25:13;;;;;;;4.63;0.85;;;12.30;70.70;;;;;;4926665;29;20038;-56
2023/10/16 11:27:42;;;;;;;1.10;0.70;;;12.20;71.70;;;;;;4934337;29;20569;-57
2023/10/16 11:30:15;;;;;;;5.82;1.23;;;12.20;72.50;;;;;;4929834;28;20523;-57
2023/10/16 11:32:46;;;;;;;2.55;0.93;;;12.20;71.30;;;;;;4934541;28;20019;-57
2023/10/16 11:35:13;;;;;;;3.13;0.80;;;12.10;71.00;;;;;;4934663;28;20115;-55
2023/10/16 11:37:39;;;;;;;3.20;0.80;;;12.00;69.90;;;;;;4931563;28;20487;-55
2023/10/16 11:40:18;;;;;;;5.85;1.23;;;11.80;70.20;;;;;;4926066;29;20107;-56
2023/10/16 11:42:47;;;;;;;2.15;0.70;;;11.70;70.40;;;;;;4927185;29;20543;-52
2023/10/16 11:45:20;;;;;;;3.00;0.80;;;11.70;70.70;;;;;;4931770;29;20027;-57
2023/10/16 11:50:51;;;;;;;2.17;0.80;;;12.00;70.40;;;;;;4903651;29;20028;-57
2023/10/16 11:53:23;;;;;;;4.97;0.90;;;12.10;70.50;;;;;;4926403;29;20098;-57
2023/10/16 11:55:50;;;;;;;2.05;0.90;;;12.30;71.00;;;;;;4926233;29;20028;-54
2023/10/16 11:58:16;;;;;;;3.20;0.90;;;12.40;70.90;;;;;;4930770;29;20019;-56
2023/10/16 12:01:07;;;;;;;2.65;0.82;;;12.30;71.10;;;;;;4929127;29;20059;-54
2023/10/16 12:03:33;;;;;;;1.85;0.73;;;12.40;71.30;;;;;;4934881;28;20027;-55
2023/10/16 12:05:59;;;;;;;2.83;0.80;;;12.30;70.10;;;;;;4929428;29;20545;-55
2023/10/16 12:08:25;;;;;;;3.10;0.90;;;12.30;71.40;;;;;;4932111;28;20031;-57
2023/10/16 12:10:50;;;;;;;2.60;0.60;;;12.30;71.50;;;;;;4930075;28;20031;-57
2023/10/16 12:13:16;;;;;;;3.90;1.60;;;12.40;72.00;;;;;;4929281;29;20028;-52
2023/10/16 12:15:46;;;;;;;4.43;1.83;;;12.40;70.70;;;;;;4932580;29;20513;-56
2023/10/16 12:18:13;;;;;;;4.75;1.63;;;12.40;70.40;;;;;;4926498;29;20043;-56
2023/10/16 12:20:39;;;;;;;4.03;1.10;;;12.30;68.90;;;;;;4931817;28;20028;-53
2023/10/16 12:23:05;;;;;;;5.47;1.85;;;12.40;70.80;;;;;;4931613;28;20051;-55
2023/10/16 12:25:32;;;;;;;4.22;1.70;;;12.40;69.60;;;;;;4931503;28;20544;-54
2023/10/16 12:27:57;;;;;;;5.35;1.80;;;12.40;69.80;;;;;;4934082;28;20063;-56
2023/10/16 12:30:25;;;;;;;3.03;1.80;;;12.40;68.80;;;;;;4924850;29;20115;-57
2023/10/16 12:32:50;;;;;;;6.00;1.98;;;12.20;69.70;;;;;;4932301;29;20072;-57
2023/10/16 12:35:18;;;;;;;5.85;1.35;;;12.20;69.80;;;;;;4930702;29;20576;-57
2023/10/16 12:37:45;;;;;;;1.60;1.00;;;12.20;69.50;;;;;;4921409;28;20020;-56
2023/10/16 12:42:58;;;;;;;9.18;1.25;;;12.10;70.80;;;;;;4928437;29;20063;-56
2023/10/16 12:45:24;;;;;;;3.33;1.00;;;12.10;71.00;;;;;;4932173;29;20074;-57
2023/10/16 12:47:53;;;;;;;3.92;1.45;;;12.20;71.20;;;;;;4930115;28;20168;-57
2023/10/16 12:50:27;;;;;;;4.15;1.20;;;12.20;70.60;;;;;;4929519;29;20028;-56
2023/10/16 12:52:55;;;;;;;1.15;0.70;;;12.20;70.60;;;;;;4932120;29;20051;-57
2023/10/16 12:55:22;;;;;;;2.72;1.08;;;12.20;70.70;;;;;;4929625;29;20032;-57
2023/10/16 12:57:48;;;;;;;3.17;0.85;;;12.20;70.60;;;;;;4930510;28;20075;-57
2023/10/16 13:00:16;;;;;;;2.28;0.70;;;12.10;70.60;;;;;;4926695;28;20343;-56
2023/10/16 13:02:42;;;;;;;2.55;0.70;;;12.10;70.60;;;;;;4931743;28;20038;-57
2023/10/16 13:05:13;;;;;;;3.20;0.80;;;12.10;70.50;;;;;;4929496;28;20513;-57
2023/10/16 13:07:47;;;;;;;2.92;1.00;;;12.10;70.50;;;;;;4932278;28;20550;-53
2023/10/16 13:10:20;;;;;;;3.33;0.80;;;12.10;70.50;;;;;;4928618;29;20038;-54
2023/10/16 13:12:46;;;;;;;1.30;0.60;;;12.10;70.30;;;;;;4928213;29;20019;-54
2023/10/16 13:15:16;;;;;;;1.75;0.70;;;12.10;70.50;;;;;;4930447;28;20099;-54
2023/10/16 13:17:44;;;;;;;3.05;0.77;;;12.10;70.90;;;;;;4929148;29;20396;-57
2023/10/16 13:20:17;;;;;;;2.22;0.80;;;12.10;71.20;;;;;;4920943;29;20059;-56
2023/10/16 13:22:44;;;;;;;3.65;0.75;;;12.10;70.70;;;;;;4921310;29;20563;-57
2023/10/16 13:25:13;;;;;;;1.20;0.75;;;12.20;70.90;;;;;;4925132;29;20024;-56
2023/10/16 13:27:40;;;;;;;4.15;0.80;;;12.20;71.10;;;;;;4928353;29;20043;-55
2023/10/16 13:30:07;;;;;;;1.10;0.50;;;12.20;70.70;;;;;;4927391;29;20043;-54
2023/10/16 13:32:32;;;;;;;1.85;0.93;;;12.20;71.20;;;;;;4931009;29;20024;-56
2023/10/16 13:35:00;;;;;;;2.60;0.70;;;12.20;71.20;;;;;;4931135;29;20510;-57
2023/10/16 13:37:26;;;;;;;2.55;0.98;;;12.20;70.90;;;;;;4924695;28;20020;-56
2023/10/16 13:39:52;;;;;;;1.65;0.80;;;12.10;71.30;;;;;;4927126;29;20034;-57
2023/10/16 13:42:20;;;;;;;1.70;0.80;;;12.10;71.60;;;;;;4928279;28;20099;-56
2023/10/16 13:44:46;;;;;;;6.50;2.35;;;12.20;71.70;;;;;;4932124;29;20552;-56
2023/10/16 13:47:13;;;;;;;7.15;2.20;;;12.10;72.10;;;;;;4926909;28;20035;-57
2023/10/16 13:49:40;;;;;;;2.35;1.20;;;12.10;70.90;;;;;;4930403;29;20066;-51
2023/10/16 13:52:09;;;;;;;4.25;1.25;;;12.10;71.00;;;;;;4927194;29;20106;-55
2023/10/16 13:54:38;;;;;;;5.10;1.10;;;12.10;71.00;;;;;;4931136;29;20443;-56
2023/10/16 13:57:04;;;;;;;7.63;1.20;;;12.10;70.90;;;;;;4927564;28;20035;-56
2023/10/16 13:59:29;;;;;;;2.92;0.60;;;12.00;70.00;;;;;;4926904;28;20502;-57
2023/10/16 14:01:56;;;;;;;2.45;0.90;;;11.90;70.40;;;;;;4926060;29;20032;-56
2023/10/16 14:04:25;;;;;;;3.00;0.73;;;11.80;70.60;;;;;;4923690;29;20059;-57
2023/10/16 14:06:53;;;;;;;3.13;0.50;;;11.70;71.10;;;;;;4919301;29;20158;-56
2023/10/16 14:09:20;;;;;;;2.33;0.70;;;11.60;71.70;;;;;;4919803;29;20027;-57
2023/10/16 14:11:49;;;;;;;1.17;0.70;;;11.50;72.00;;;;;;4921716;29;20062;-56
2023/10/16 14:14:20;;;;;;;2.25;0.90;;;11.50;72.30;;;;;;4921935;29;20035;-57
2023/10/16 14:16:50;;;;;;;2.25;0.77;;;11.40;72.20;;;;;;4921692;29;20055;-55
2023/10/16 14:19:22;;;;;;;1.30;0.80;;;11.30;72.10;;;;;;4921664;29;20036;-55
2023/10/16 14:21:51;;;;;;;3.88;1.02;;;11.20;72.60;;;;;;4922213;29;20086;-55
2023/10/16 14:24:22;;;;;;;2.03;0.90;;;11.10;73.00;;;;;;4921991;29;20424;-57
2023/10/16 14:26:49;;;;;;;2.42;0.60;;;11.00;74.20;;;;;;4922167;29;20032;-51
2023/10/16 14:29:16;;;;;;;1.85;0.55;;;10.90;74.70;;;;;;4922458;29;20043;-57
2023/10/16 14:31:46;;;;;;;1.88;0.77;;;10.70;74.90;;;;;;4922114;29;20127;-52
2023/10/16 14:34:17;;;;;;;1.27;0.60;;;10.60;75.30;;;;;;4928807;29;20038;-56
2023/10/16 14:36:45;;;;;;;2.50;0.50;;;10.50;75.40;;;;;;4921918;29;20020;-59
2023/10/16 14:39:12;;;;;;;1.35;0.60;;;10.40;75.40;;;;;;4928506;28;20060;-59
2023/10/16 14:41:37;;;;;;;1.77;0.50;;;10.30;75.80;;;;;;4929967;29;20027;-59
2023/10/16 14:44:04;;;;;;;1.60;0.68;;;10.20;75.90;;;;;;4923927;28;20039;-59
2023/10/16 14:46:30;;;;;;;14.38;2.90;;;10.20;76.30;;;;;;4924169;29;20425;-59
2023/10/16 14:48:56;;;;;;;6.68;1.65;;;10.10;77.50;;;;;;4930578;29;20023;-59
2023/10/16 14:51:22;;;;;;;1.58;1.00;;;10.10;77.80;;;;;;4929819;29;20526;-59
2023/10/16 14:53:48;;;;;;;2.20;0.93;;;10.00;77.70;;;;;;4926846;29;20028;-59
2023/10/16 14:56:20;;;;;;;1.80;0.90;;;10.00;78.20;;;;;;4928341;28;20020;-59
2023/10/16 14:58:49;;;;;;;2.67;1.00;;;10.00;78.50;;;;;;4929855;29;20077;-59
2023/10/16 15:01:15;;;;;;;1.98;0.90;;;10.00;78.50;;;;;;4926072;28;20575;-59
2023/10/16 15:03:48;;;;;;;2.25;1.10;;;9.90;78.50;;;;;;4928789;28;20103;-57
2023/10/16 15:06:15;;;;;;;2.45;1.15;;;9.90;79.40;;;;;;4929793;29;20289;-59
2023/10/16 15:08:42;;;;;;;4.30;1.40;;;9.90;80.40;;;;;;4931075;28;20439;-60
2023/10/16 15:11:10;;;;;;;7.32;1.60;;;9.80;80.70;;;;;;4925610;28;20036;-59
2023/10/16 15:13:37;;;;;;;4.15;1.67;;;9.70;81.30;;;;;;4929390;29;20031;-59
2023/10/16 15:16:06;;;;;;;5.82;1.95;;;9.70;80.90;;;;;;4928009;29;20079;-59
2023/10/16 15:18:33;;;;;;;6.70;2.25;;;9.60;81.30;;;;;;4921680;28;20020;-59